Pagrindinis puslapis
METAR-TAF:

METAR-TAF

Oro uostai :

New Haven, Konektikutas, Jungtinės Amerikos Valstijos

platuma: 41-15-50N, ilguma: 072-53-14W, Aukštis: 4 m

Dabartinis oras

Ataskaita buvo paskelbta 22 minutes, ne 06:53 UTC
Vėjas 9 kt iš Vakarų/Pietvakarių su gūsio iki 24 kt
Temperatūra 0°C
Drėgmė 43%
Slėgis 1008 hPa
Matomumas: 16.1 km
Giedras dangus

METAR: KHVN 280653Z AUTO 25009G24KT 10SM CLR 00/M11 A2978 RMK AO2 SLP083 T00001111

Laikas: 02:15 (07:15 UTC)


TAF: trūkstamas

Orai ataskaitas ir orų prognozės (METAR, TAF).

turimą stotys yra geltonos ir raudonos taškus žemėlapyje.

Perkelti pele per norėdami pamatyti stoties vardą.

Tada spustelėkite, norėdami matyti oro stebėjimo ir prognozės.

Norėdami pakeisti žemėlapį: spustelėkite ant žalios mygtukų su juodo kryžiaus žemyn,; žalią mygtuką su brūkšneliu, jei norite nutolinti; arba žalių rodyklių gretimoms žemėlapius.


METAR-TAF: